Terminal Aerodrome Forecast
Issued by NWS

Home | Current Version | Previous Version | Text Only | Print | Product List | Glossary On
Versions: 1 2 3 4 5 6 7 8 9 10 11 12 13
000
FTUS45 KFGZ 291726
TAFPRC
TAF
KPRC 291726Z 2918/3018 VRB05KT P6SM SCT100 BKN120
      TEMPO 2922/3001 VRB15G30KT 6SM -TSRA BKN090CB
     FM300100 VRB06KT P6SM SCT120 BKN200=

USA.gov is the U.S. government's official web portal to all federal, state and local government web resources and services.